Time;durP1;ratioP1;P1;durP2;ratioP2;P2;SDS_P1;SDS_P2;PMS_P1;PMS_P2;Temp;Humidity;BMP_temperature;BMP_pressure;BME280_temperature;BME280_humidity;BME280_pressure;Samples;Min_cycle;Max_cycle;Signal;HPM_P1;HPM_P2
2022/06/21 00:00:46;;;;;;;2.00;1.47;;;;;;;13.89;100.00;98159.36;2068848;86;21051;-85
2022/06/21 00:03:47;;;;;;;1.80;1.70;;;;;;;13.85;100.00;98166.89;2017295;86;21087;-84
2022/06/21 00:06:48;;;;;;;3.00;1.52;;;;;;;13.79;100.00;98156.41;2058676;85;21540;-86
2022/06/21 00:09:48;;;;;;;1.95;1.85;;;;;;;13.72;100.00;98156.47;2073595;85;21079;-86
2022/06/21 00:12:49;;;;;;;2.45;1.65;;;;;;;13.64;100.00;98166.73;2073015;85;21080;-86
2022/06/21 00:15:50;;;;;;;3.85;1.52;;;;;;;13.55;100.00;98167.20;2097463;84;21066;-82
2022/06/21 00:18:52;;;;;;;3.00;1.98;;;;;;;13.50;100.00;98176.22;2113223;84;21072;-87
2022/06/21 00:21:53;;;;;;;2.00;1.90;;;;;;;13.48;100.00;98173.80;2099611;83;21054;-88
2022/06/21 00:24:54;;;;;;;1.62;1.42;;;;;;;13.46;100.00;98173.73;2090250;84;21130;-89
2022/06/21 00:27:55;;;;;;;13.80;2.37;;;;;;;13.40;100.00;98171.93;2064580;85;21026;-87
2022/06/21 00:30:56;;;;;;;1.77;1.67;;;;;;;13.36;100.00;98173.67;2071546;86;21083;-88
2022/06/21 00:33:56;;;;;;;1.77;1.60;;;;;;;13.36;100.00;98179.45;2066781;85;21094;-86
2022/06/21 00:36:58;;;;;;;2.10;1.75;;;;;;;13.29;100.00;98176.84;2069773;86;21000;-86
2022/06/21 00:40:02;;;;;;;;;;;;;;;;;;;;;
2022/06/21 00:43:04;;;;;;;1.65;1.55;;;;;;;13.09;100.00;98180.03;2035397;85;21065;-87
2022/06/21 00:46:04;;;;;;;1.90;1.80;;;;;;;13.04;100.00;98175.39;2032103;86;21076;-86
2022/06/21 00:49:05;;;;;;;2.85;1.92;;;;;;;13.02;100.00;98191.88;2039307;85;20995;-88
2022/06/21 00:52:06;;;;;;;2.40;2.20;;;;;;;12.95;100.00;98201.59;2065166;85;21033;-85
2022/06/21 00:55:06;;;;;;;2.42;2.17;;;;;;;12.90;100.00;98190.11;2070915;85;21094;-85
2022/06/21 00:58:07;;;;;;;1.92;1.80;;;;;;;12.88;100.00;98193.42;2058388;85;20994;-83
2022/06/21 01:01:08;;;;;;;2.35;2.25;;;;;;;12.85;100.00;98187.28;2039485;85;21053;-85
2022/06/21 01:04:10;;;;;;;1.92;1.82;;;;;;;12.81;100.00;98188.22;2050731;85;21811;-86
2022/06/21 01:07:11;;;;;;;2.10;2.00;;;;;;;12.72;100.00;98181.57;2054440;85;21057;-86
2022/06/21 01:10:11;;;;;;;3.65;2.60;;;;;;;12.70;100.00;98184.38;2079382;85;21172;-86
2022/06/21 01:13:12;;;;;;;2.47;2.27;;;;;;;12.66;100.00;98189.75;2029741;85;21544;-86
2022/06/21 01:16:13;;;;;;;2.22;1.98;;;;;;;12.65;100.00;98189.97;2051463;85;21548;-87
2022/06/21 01:19:14;;;;;;;2.22;2.02;;;;;;;12.61;100.00;98186.92;2056975;85;21127;-86
2022/06/21 01:22:14;;;;;;;1.90;1.80;;;;;;;12.57;100.00;98180.98;2042529;85;21018;-87
2022/06/21 01:25:15;;;;;;;2.08;1.98;;;;;;;12.55;100.00;98183.82;2056192;85;21053;-86
2022/06/21 01:28:16;;;;;;;3.25;3.05;;;;;;;12.55;100.00;98182.51;2054253;85;21056;-86
2022/06/21 01:31:17;;;;;;;4.90;2.47;;;;;;;12.57;100.00;98179.16;2045973;85;21033;-87
2022/06/21 01:34:17;;;;;;;2.35;2.22;;;;;;;12.60;100.00;98180.06;2033740;85;21045;-87
2022/06/21 01:37:18;;;;;;;2.35;2.25;;;;;;;12.60;100.00;98185.31;2061437;85;21100;-86
2022/06/21 01:40:19;;;;;;;2.85;2.65;;;;;;;12.63;100.00;98174.92;2027567;86;21014;-87
2022/06/21 01:43:19;;;;;;;3.25;2.42;;;;;;;12.65;100.00;98162.38;2068640;85;21140;-88
2022/06/21 01:46:20;;;;;;;5.90;3.22;;;;;;;12.70;100.00;98152.86;2068776;85;21536;-86
2022/06/21 01:49:21;;;;;;;2.77;2.58;;;;;;;12.74;100.00;98151.45;2061697;85;21021;-89
2022/06/21 01:52:22;;;;;;;2.90;2.70;;;;;;;12.77;100.00;98158.91;2053223;85;21575;-88
2022/06/21 01:55:22;;;;;;;3.25;2.70;;;;;;;12.75;100.00;98160.94;2048573;85;21073;-88
2022/06/21 01:58:23;;;;;;;2.80;2.60;;;;;;;12.73;100.00;98162.97;2060578;85;21022;-86
2022/06/21 02:01:24;;;;;;;5.00;3.05;;;;;;;12.71;100.00;98166.31;2046874;85;21084;-86
2022/06/21 02:04:25;;;;;;;3.65;3.42;;;;;;;12.67;100.00;98164.30;2038546;85;21016;-88
2022/06/21 02:07:25;;;;;;;3.08;2.77;;;;;;;12.62;100.00;98173.28;2027936;85;21071;-88
2022/06/21 02:10:26;;;;;;;3.62;3.00;;;;;;;12.58;100.00;98172.89;2044936;85;21151;-88
2022/06/21 02:13:27;;;;;;;3.42;3.22;;;;;;;12.60;100.00;98181.88;2102963;83;21545;-87
2022/06/21 02:16:27;;;;;;;4.25;3.95;;;;;;;12.66;100.00;98185.81;2110425;84;21531;-87
2022/06/21 02:19:28;;;;;;;5.22;4.15;;;;;;;12.71;100.00;98193.06;2096214;83;21065;-86
2022/06/21 02:22:29;;;;;;;4.60;3.95;;;;;;;12.77;100.00;98187.00;2065057;85;21058;-87
2022/06/21 02:25:29;;;;;;;4.30;4.00;;;;;;;12.78;100.00;98192.04;2067541;85;22380;-88
2022/06/21 02:28:30;;;;;;;4.95;4.40;;;;;;;12.81;100.00;98186.39;2025704;87;21133;-86
2022/06/21 02:31:31;;;;;;;4.40;4.10;;;;;;;12.82;100.00;98178.00;2075854;85;21016;-86
2022/06/21 02:34:31;;;;;;;5.25;4.75;;;;;;;12.82;100.00;98175.38;2080681;85;21368;-87
2022/06/21 02:37:32;;;;;;;4.28;3.98;;;;;;;12.84;100.00;98174.66;2071994;85;21151;-86
2022/06/21 02:40:33;;;;;;;5.00;4.15;;;;;;;12.85;100.00;98169.70;2063865;85;21013;-86
2022/06/21 02:43:33;;;;;;;4.90;4.50;;;;;;;12.87;100.00;98166.86;2046917;85;21125;-86
2022/06/21 02:46:34;;;;;;;5.53;5.03;;;;;;;12.88;100.00;98170.59;2066848;85;21076;-86
2022/06/21 02:49:35;;;;;;;14.47;5.55;;;;;;;12.86;100.00;98171.31;2064357;85;21090;-87
2022/06/21 02:52:37;;;;;;;5.28;4.87;;;;;;;12.91;100.00;98174.64;2041010;85;21075;-87
2022/06/21 02:55:37;;;;;;;4.78;4.42;;;;;;;12.96;100.00;98178.75;2117928;84;21061;-89
2022/06/21 02:58:38;;;;;;;4.78;4.37;;;;;;;12.97;100.00;98175.91;2101690;84;21552;-80
2022/06/21 03:01:39;;;;;;;5.22;4.72;;;;;;;13.03;100.00;98176.41;2088925;83;21052;-85
2022/06/21 03:04:39;;;;;;;5.75;4.42;;;;;;;13.12;100.00;98184.06;2092884;84;20994;-86
2022/06/21 03:07:40;;;;;;;4.72;4.42;;;;;;;13.15;100.00;98180.50;2083984;83;21055;-84
2022/06/21 03:10:41;;;;;;;4.95;4.55;;;;;;;13.16;100.00;98186.05;2067071;85;21068;-86
2022/06/21 03:13:41;;;;;;;4.75;3.90;;;;;;;13.14;100.00;98179.40;2014069;86;21596;-86
2022/06/21 03:16:42;;;;;;;5.83;3.98;;;;;;;13.10;100.00;98175.88;2019100;86;21075;-83
2022/06/21 03:19:43;;;;;;;4.65;4.25;;;;;;;13.13;100.00;98173.33;2044314;87;21013;-85
2022/06/21 03:22:44;;;;;;;4.85;4.35;;;;;;;13.21;100.00;98175.77;2034824;86;21677;-87
2022/06/21 03:25:45;;;;;;;6.47;4.60;;;;;;;13.28;100.00;98177.86;2030935;87;21025;-86
2022/06/21 03:28:45;;;;;;;4.62;4.08;;;;;;;13.31;100.00;98183.20;2063051;86;21020;-84
2022/06/21 03:31:48;;;;;;;5.05;4.65;;;;;;;13.34;100.00;98194.60;2020623;86;21069;-85
2022/06/21 03:34:50;;;;;;;6.08;4.67;;;;;;;13.35;100.00;98190.98;2045806;86;21111;-85
2022/06/21 03:37:51;;;;;;;6.25;5.03;;;;;;;13.40;100.00;98196.91;2042957;86;21096;-85
2022/06/21 03:44:11;;;;;;;4.92;4.45;;;;;;;13.50;100.00;98194.13;2086307;83;21024;-85
2022/06/21 03:47:12;;;;;;;4.55;4.12;;;;;;;13.93;100.00;98187.69;2065881;85;21031;-86
2022/06/21 03:50:12;;;;;;;5.35;3.90;;;;;;;14.66;100.00;98185.77;2067356;86;21067;-86
2022/06/21 03:53:13;;;;;;;4.20;3.75;;;;;;;15.36;100.00;98188.84;2065659;85;20980;-86
2022/06/21 03:56:14;;;;;;;3.95;3.37;;;;;;;16.16;100.00;98188.50;2070807;85;21594;-85
2022/06/21 03:59:15;;;;;;;5.22;3.47;;;;;;;16.96;100.00;98180.52;2017948;87;21016;-85
2022/06/21 04:02:15;;;;;;;3.50;3.25;;;;;;;17.65;100.00;98183.98;2022266;86;21058;-86
2022/06/21 04:05:16;;;;;;;3.00;2.80;;;;;;;18.33;100.00;98184.86;2066285;85;21098;-88
2022/06/21 04:08:16;;;;;;;4.72;3.65;;;;;;;19.01;100.00;98183.17;2022164;86;21554;-85
2022/06/21 04:11:17;;;;;;;2.22;2.12;;;;;;;19.55;100.00;98183.25;2016658;87;21028;-84
2022/06/21 04:14:18;;;;;;;3.15;2.77;;;;;;;20.01;100.00;98185.04;2067528;85;21115;-85
2022/06/21 04:17:19;;;;;;;2.60;2.40;;;;;;;19.99;100.00;98182.37;2067908;85;21016;-85
2022/06/21 04:20:19;;;;;;;3.40;3.10;;;;;;;19.81;100.00;98189.65;2015014;86;21523;-85
2022/06/21 04:23:20;;;;;;;3.22;3.02;;;;;;;19.47;100.00;98190.86;2043656;86;21551;-86
2022/06/21 04:26:21;;;;;;;3.10;2.90;;;;;;;19.12;100.00;98184.12;2066184;85;21028;-85
2022/06/21 04:29:21;;;;;;;3.83;3.58;;;;;;;18.54;100.00;98180.13;2025961;87;21060;-84
2022/06/21 04:32:22;;;;;;;3.90;3.60;;;;;;;18.03;100.00;98187.84;2025428;86;21608;-86
2022/06/21 04:35:23;;;;;;;3.55;3.27;;;;;;;17.42;100.00;98192.01;2051228;85;21037;-84
2022/06/21 04:38:23;;;;;;;3.25;3.00;;;;;;;16.88;100.00;98195.42;2056389;84;21014;-85
2022/06/21 04:41:24;;;;;;;3.50;3.17;;;;;;;16.49;100.00;98177.91;2060161;85;21552;-89
2022/06/21 04:44:25;;;;;;;7.12;3.37;;;;;;;16.67;100.00;98187.55;2052303;84;21101;-84
2022/06/21 04:47:26;;;;;;;4.92;2.70;;;;;;;16.50;100.00;98196.69;2058507;85;21045;-84
2022/06/21 04:50:26;;;;;;;3.00;2.80;;;;;;;16.30;100.00;98198.87;2052859;85;21001;-83
2022/06/21 04:53:27;;;;;;;3.50;2.90;;;;;;;16.31;100.00;98197.83;2072068;85;21013;-84
2022/06/21 04:56:28;;;;;;;2.80;2.60;;;;;;;16.60;100.00;98194.27;2104072;83;20999;-83
2022/06/21 04:59:29;;;;;;;4.42;2.62;;;;;;;16.44;100.00;98206.33;2098710;83;21489;-83
2022/06/21 05:02:29;;;;;;;3.45;2.80;;;;;;;16.56;100.00;98198.42;2099144;84;21045;-83
2022/06/21 05:05:30;;;;;;;2.42;2.33;;;;;;;16.45;100.00;98189.95;2099949;84;21076;-82
2022/06/21 05:08:31;;;;;;;3.92;2.92;;;;;;;16.50;100.00;98209.37;2093716;83;20998;-81
2022/06/21 05:11:31;;;;;;;4.15;2.90;;;;;;;16.80;100.00;98201.06;2109796;83;21082;-81
2022/06/21 05:14:32;;;;;;;3.22;2.60;;;;;;;16.68;100.00;98200.56;2105865;83;21548;-83
2022/06/21 05:17:33;;;;;;;4.30;2.58;;;;;;;16.56;100.00;98182.56;2099463;83;21029;-82
2022/06/21 05:20:34;;;;;;;2.20;2.05;;;;;;;16.62;100.00;98191.39;2101987;83;21380;-81
2022/06/21 05:23:34;;;;;;;3.25;2.62;;;;;;;16.47;100.00;98208.53;2102873;84;21581;-82
2022/06/21 05:26:38;;;;;;;3.62;2.60;;;;;;;16.31;100.00;98192.55;2104089;84;20979;-82
2022/06/21 05:29:38;;;;;;;2.58;2.25;;;;;;;16.51;100.00;98198.30;2099807;83;21037;-82
2022/06/21 05:32:38;;;;;;;2.35;2.25;;;;;;;16.68;100.00;98193.95;2095251;83;21556;-82
2022/06/21 05:35:39;;;;;;;2.05;1.95;;;;;;;16.95;100.00;98199.55;2102500;83;21565;-82
2022/06/21 05:38:40;;;;;;;2.20;2.05;;;;;;;17.28;100.00;98203.38;2099600;83;21066;-82
2022/06/21 05:41:41;;;;;;;3.37;2.50;;;;;;;17.57;100.00;98198.92;2108862;84;21041;-82
2022/06/21 05:44:42;;;;;;;2.30;2.10;;;;;;;18.03;100.00;98199.75;2094812;83;21108;-82
2022/06/21 05:47:42;;;;;;;2.47;2.27;;;;;;;17.79;100.00;98208.34;2100118;84;21030;-81
2022/06/21 05:50:43;;;;;;;4.42;2.62;;;;;;;17.53;100.00;98206.52;2098728;83;21553;-82
2022/06/21 05:53:49;;;;;;;3.35;2.37;;;;;;;17.38;100.00;98211.53;2102490;83;21568;-82
2022/06/21 05:56:46;;;;;;;2.10;2.00;;;;;;;17.44;100.00;98211.89;2076827;85;21608;-82
2022/06/21 05:59:47;;;;;;;2.42;2.22;;;;;;;17.30;100.00;98215.35;2103644;83;21035;-81
2022/06/21 06:02:51;;;;;;;6.92;2.40;;;;;;;17.16;100.00;98211.34;2109138;83;21061;-82
2022/06/21 06:05:55;;;;;;;2.80;2.00;;;;;;;17.15;100.00;98214.23;2108969;83;21081;-82
2022/06/21 06:08:55;;;;;;;2.40;2.22;;;;;;;17.26;100.00;98219.48;2066382;84;21086;-82
2022/06/21 06:12:01;;;;;;;3.58;1.87;;;;;;;17.25;100.00;98215.75;2108174;84;21037;-81
2022/06/21 06:15:01;;;;;;;2.37;2.12;;;;;;;17.43;100.00;98204.20;2094475;84;21077;-82
2022/06/21 06:18:02;;;;;;;1.72;1.62;;;;;;;17.57;99.79;98192.30;2098036;83;21077;-82
2022/06/21 06:21:03;;;;;;;1.70;1.60;;;;;;;17.46;99.85;98214.30;2107851;84;21634;-82
2022/06/21 06:24:04;;;;;;;2.47;1.60;;;;;;;17.86;98.66;98203.70;2102283;84;21049;-82
2022/06/21 06:27:04;;;;;;;2.20;1.87;;;;;;;17.67;94.92;98202.27;2102180;83;21046;-82
2022/06/21 06:30:05;;;;;;;3.02;1.75;;;;;;;17.38;96.52;98227.94;2106280;83;20959;-82
2022/06/21 06:33:06;;;;;;;2.30;2.10;;;;;;;17.14;98.74;98211.30;2103764;84;21039;-81
2022/06/21 06:36:06;;;;;;;2.15;1.80;;;;;;;16.88;97.89;98220.02;2105520;84;21081;-82
2022/06/21 06:39:07;;;;;;;6.17;2.22;;;;;;;16.77;99.70;98209.75;2108491;84;21455;-81
2022/06/21 06:42:08;;;;;;;3.33;2.02;;;;;;;16.74;100.00;98212.06;2109032;84;21034;-81
2022/06/21 06:45:08;;;;;;;3.87;1.92;;;;;;;16.74;99.54;98214.70;2103822;84;21030;-81
2022/06/21 06:48:09;;;;;;;1.70;1.60;;;;;;;16.66;97.82;98203.13;2104587;84;21042;-81
2022/06/21 06:51:10;;;;;;;1.45;1.45;;;;;;;16.55;95.57;98221.09;2104647;84;21473;-81
2022/06/21 06:54:10;;;;;;;1.90;1.60;;;;;;;16.56;94.50;98214.80;2097558;84;21065;-82
2022/06/21 06:57:11;;;;;;;1.82;1.60;;;;;;;16.63;94.01;98225.52;2100064;84;21014;-81
2022/06/21 07:00:12;;;;;;;2.47;1.98;;;;;;;16.64;96.60;98211.78;2099420;84;21041;-82
2022/06/21 07:03:13;;;;;;;2.85;2.65;;;;;;;16.61;98.83;98210.93;2103448;84;20984;-82
2022/06/21 07:06:13;;;;;;;2.45;1.85;;;;;;;16.49;99.29;98223.63;2103452;84;21058;-81
2022/06/21 07:09:14;;;;;;;2.67;2.05;;;;;;;16.36;99.05;98222.52;2098975;84;21537;-83
2022/06/21 07:12:15;;;;;;;3.95;2.10;;;;;;;16.22;100.00;98227.73;2104268;84;21071;-81
2022/06/21 07:15:16;;;;;;;2.15;2.02;;;;;;;16.26;100.00;98224.91;2094372;83;21037;-82
2022/06/21 07:18:17;;;;;;;2.37;1.85;;;;;;;16.58;100.00;98228.06;2100494;84;21041;-81
2022/06/21 07:21:17;;;;;;;1.50;1.45;;;;;;;16.76;96.09;98218.72;2101914;84;20991;-82
2022/06/21 07:24:18;;;;;;;2.22;1.87;;;;;;;16.83;96.81;98225.22;2098522;83;21604;-82
2022/06/21 07:27:21;;;;;;;1.70;1.57;;;;;;;16.99;97.20;98233.73;2098727;84;21499;-82
2022/06/21 07:30:22;;;;;;;1.35;1.35;;;;;;;17.20;95.03;98226.25;2108780;84;21014;-83
2022/06/21 07:33:22;;;;;;;2.20;2.10;;;;;;;17.08;91.89;98234.19;2105153;84;21037;-82
2022/06/21 07:36:23;;;;;;;2.08;1.40;;;;;;;16.68;93.81;98233.60;2101964;83;20971;-83
2022/06/21 07:39:24;;;;;;;1.50;1.40;;;;;;;16.49;93.18;98224.15;2099539;83;21154;-83
2022/06/21 07:42:24;;;;;;;1.87;1.40;;;;;;;16.47;94.05;98240.75;2099706;84;21053;-82
2022/06/21 07:45:26;;;;;;;1.77;1.22;;;;;;;16.49;90.53;98230.23;2101196;84;21026;-82
2022/06/21 07:48:26;;;;;;;1.10;1.10;;;;;;;16.85;90.81;98235.56;2099813;83;21143;-83
2022/06/21 07:51:27;;;;;;;1.12;0.88;;;;;;;17.13;86.44;98221.08;2093537;83;21007;-82
2022/06/21 07:54:28;;;;;;;1.00;1.00;;;;;;;17.18;83.95;98229.11;2104870;84;21128;-83
2022/06/21 07:57:29;;;;;;;1.65;1.30;;;;;;;16.93;85.99;98253.20;2104618;84;21011;-82
2022/06/21 08:06:40;;;;;;;1.50;1.30;;;;;;;16.72;88.49;98233.94;2109924;83;21063;-83
2022/06/21 08:06:51;;;;;;;1.80;1.27;;;;;;;16.14;92.45;98246.03;2097280;83;21029;-83
2022/06/21 08:09:52;;;;;;;2.62;1.20;;;;;;;15.97;93.69;98251.66;2102209;83;20998;-83
2022/06/21 08:12:53;;;;;;;4.40;1.70;;;;;;;16.10;94.07;98250.69;2102301;83;21003;-83
2022/06/21 08:15:54;;;;;;;1.27;1.17;;;;;;;16.12;92.69;98244.66;2099235;84;21021;-83
2022/06/21 08:18:54;;;;;;;7.50;1.47;;;;;;;16.25;93.14;98237.03;2099719;83;21102;-83
2022/06/21 08:21:56;;;;;;;0.80;0.80;;;;;;;16.56;91.75;98247.31;2093306;83;21495;-83
2022/06/21 08:24:56;;;;;;;0.85;0.80;;;;;;;16.77;85.33;98230.90;2096648;83;21604;-83
2022/06/21 08:27:57;;;;;;;2.25;0.70;;;;;;;16.80;82.66;98219.56;2105418;83;21026;-83
2022/06/21 08:30:57;;;;;;;0.60;0.60;;;;;;;17.07;82.30;98237.88;2098409;83;21100;-83
2022/06/21 08:33:58;;;;;;;2.75;0.60;;;;;;;17.29;80.97;98238.88;2104521;83;21559;-83
2022/06/21 08:36:59;;;;;;;2.40;1.07;;;;;;;17.39;75.64;98240.92;2091553;83;21006;-83
2022/06/21 08:40:00;;;;;;;1.17;0.90;;;;;;;17.47;78.03;98247.70;2104788;83;21096;-82
2022/06/21 08:43:01;;;;;;;0.70;0.70;;;;;;;17.34;82.56;98250.07;2103921;83;20995;-83
2022/06/21 08:46:01;;;;;;;2.85;0.80;;;;;;;17.20;84.94;98258.00;2104901;84;21019;-83
2022/06/21 08:49:02;;;;;;;1.60;0.85;;;;;;;17.04;84.33;98243.12;2105461;84;21090;-83
2022/06/21 08:52:03;;;;;;;1.00;1.00;;;;;;;16.80;85.25;98250.77;2105892;84;21014;-83
2022/06/21 08:55:04;;;;;;;3.02;1.12;;;;;;;16.74;83.90;98260.97;2092858;83;21117;-83
2022/06/21 08:58:05;;;;;;;2.27;1.10;;;;;;;16.84;84.07;98267.80;2102826;84;21469;-83
2022/06/21 09:01:06;;;;;;;1.00;0.90;;;;;;;17.16;84.32;98267.42;2109149;83;21026;-82
2022/06/21 09:04:07;;;;;;;1.50;1.32;;;;;;;17.41;81.75;98273.24;2108131;83;21021;-83
2022/06/21 09:07:07;;;;;;;0.80;0.80;;;;;;;17.66;83.13;98261.03;2096496;83;21014;-82
2022/06/21 09:10:08;;;;;;;2.42;1.12;;;;;;;17.73;82.56;98279.44;2105299;84;21053;-83
2022/06/21 09:13:11;;;;;;;1.92;1.07;;;;;;;17.71;80.42;98265.64;2092654;83;21038;-82
2022/06/21 09:16:11;;;;;;;1.02;0.82;;;;;;;17.80;82.24;98266.88;2096489;83;21049;-83
2022/06/21 09:19:15;;;;;;;;;;;;;;;;;;;;;
2022/06/21 09:22:15;;;;;;;0.90;0.90;;;;;;;18.12;80.94;98260.57;2094720;83;21106;-83
2022/06/21 09:25:16;;;;;;;1.25;0.85;;;;;;;18.19;80.04;98247.42;2101329;83;21086;-82
2022/06/21 09:28:17;;;;;;;1.20;0.90;;;;;;;18.41;78.40;98254.16;2106635;84;21522;-83
2022/06/21 09:31:18;;;;;;;0.88;0.88;;;;;;;18.44;81.43;98262.14;2100135;83;21061;-83
2022/06/21 09:34:19;;;;;;;0.80;0.70;;;;;;;18.55;79.67;98259.12;2101650;83;21450;-84
2022/06/21 09:37:20;;;;;;;1.70;0.90;;;;;;;18.58;79.94;98258.67;2109676;84;21165;-83
2022/06/21 09:40:21;;;;;;;3.35;1.00;;;;;;;18.42;79.47;98262.39;2094770;83;20991;-83
2022/06/21 09:43:22;;;;;;;0.82;0.80;;;;;;;18.19;79.41;98257.22;2105406;83;21086;-83
2022/06/21 09:46:22;;;;;;;1.45;0.80;;;;;;;18.03;80.81;98262.80;2104635;84;21050;-83
2022/06/21 09:49:23;;;;;;;0.80;0.80;;;;;;;17.78;80.80;98256.52;2104794;84;21101;-83
2022/06/21 09:52:24;;;;;;;1.90;1.12;;;;;;;17.51;80.59;98246.98;2102566;84;21534;-82
2022/06/21 09:55:25;;;;;;;0.88;0.88;;;;;;;17.52;82.59;98258.36;2106303;84;21026;-83
2022/06/21 09:58:25;;;;;;;3.72;1.10;;;;;;;17.75;82.88;98260.17;2097199;84;20987;-83
2022/06/21 10:01:26;;;;;;;1.95;0.82;;;;;;;18.14;81.00;98264.58;2089057;83;21084;-83
2022/06/21 10:04:28;;;;;;;1.95;0.60;;;;;;;18.11;78.07;98258.45;2095306;83;21089;-83
2022/06/21 10:07:28;;;;;;;1.47;1.02;;;;;;;17.89;80.09;98253.53;2107394;84;21085;-83
2022/06/21 10:10:29;;;;;;;3.25;0.98;;;;;;;17.70;80.71;98258.22;2104759;83;21447;-83
2022/06/21 10:13:30;;;;;;;0.95;0.90;;;;;;;17.70;82.72;98260.06;2103841;83;21037;-83
2022/06/21 10:16:31;;;;;;;1.72;0.90;;;;;;;17.58;81.28;98249.50;2095894;83;20986;-83
2022/06/21 10:19:32;;;;;;;2.25;1.10;;;;;;;17.54;81.13;98268.99;2105337;83;21003;-82
2022/06/21 10:22:32;;;;;;;1.72;0.85;;;;;;;17.54;81.32;98272.16;2105429;84;21058;-83
2022/06/21 10:25:33;;;;;;;1.02;0.80;;;;;;;17.62;81.43;98283.19;2106711;84;21513;-82
2022/06/21 10:28:37;;;;;;;2.02;0.78;;;;;;;17.88;80.69;98285.03;2102595;83;21066;-81
2022/06/21 10:31:38;;;;;;;1.37;0.90;;;;;;;18.24;81.36;98275.88;2110257;84;21011;-82
2022/06/21 10:34:38;;;;;;;0.88;0.80;;;;;;;18.33;80.11;98280.27;2100838;83;21078;-81
2022/06/21 10:37:40;;;;;;;1.22;0.72;;;;;;;18.26;82.12;98276.43;2104712;84;20990;-82
2022/06/21 10:40:40;;;;;;;1.65;0.78;;;;;;;18.07;83.51;98285.11;2098893;83;21091;-83
2022/06/21 10:43:41;;;;;;;1.85;1.10;;;;;;;17.88;84.22;98278.41;2092829;83;21517;-83
2022/06/21 10:46:44;;;;;;;1.70;1.07;;;;;;;17.73;85.06;98280.23;2090505;83;21142;-83
2022/06/21 10:49:47;;;;;;;1.45;1.00;;;;;;;17.46;86.19;98280.47;2092538;83;21664;-82
2022/06/21 10:53:00;;;;;;;1.45;1.35;;;;;;;17.25;88.37;98289.31;2103880;84;21574;-83
2022/06/21 10:59:21;;;;;;;1.27;1.17;;;;;;;16.91;90.77;98297.55;2104616;83;21002;-83
2022/06/21 11:02:22;;;;;;;3.62;1.45;;;;;;;16.85;92.07;98301.14;2103349;83;21026;-83
2022/06/21 11:05:22;;;;;;;3.30;1.50;;;;;;;16.86;92.86;98293.48;2101301;83;21017;-83
2022/06/21 11:08:23;;;;;;;1.70;1.30;;;;;;;16.78;94.38;98297.27;2107366;83;21097;-83
2022/06/21 11:11:24;;;;;;;2.35;1.20;;;;;;;16.78;94.14;98300.44;2098363;83;21065;-83
2022/06/21 11:14:24;;;;;;;1.07;1.02;;;;;;;16.89;94.43;98289.05;2108991;83;21114;-83
2022/06/21 11:17:25;;;;;;;1.30;1.17;;;;;;;17.02;95.50;98282.22;2106441;84;21518;-83
2022/06/21 11:20:26;;;;;;;1.95;1.05;;;;;;;17.27;94.28;98290.40;2104048;83;21074;-83
2022/06/21 11:23:26;;;;;;;2.55;1.10;;;;;;;17.71;94.30;98300.86;2100323;83;21010;-83
2022/06/21 11:26:27;;;;;;;1.55;0.90;;;;;;;18.02;88.23;98274.97;2098402;83;21538;-83
2022/06/21 11:29:28;;;;;;;4.17;1.12;;;;;;;18.11;88.61;98275.66;2099364;84;21025;-83
2022/06/21 11:32:29;;;;;;;3.35;1.05;;;;;;;18.14;86.53;98292.40;2105843;84;21002;-82
2022/06/21 11:35:30;;;;;;;0.95;0.80;;;;;;;18.26;82.07;98283.58;2105528;84;21037;-82
2022/06/21 11:38:32;;;;;;;3.98;1.00;;;;;;;18.33;83.43;98300.14;2099131;83;21497;-83
2022/06/21 11:44:52;;;;;;;3.15;0.80;;;;;;;18.31;82.15;98287.66;2105002;83;21157;-82
2022/06/21 11:47:54;;;;;;;1.40;0.80;;;;;;;18.38;76.83;98293.61;2105073;83;20983;-82
2022/06/21 11:50:55;;;;;;;2.05;1.00;;;;;;;18.51;78.27;98304.41;2104915;84;21097;-82
2022/06/21 11:53:56;;;;;;;1.42;0.70;;;;;;;18.58;75.84;98287.83;2102821;83;21059;-82
2022/06/21 11:56:57;;;;;;;1.92;0.98;;;;;;;18.67;74.17;98309.75;2101949;83;21058;-82
2022/06/21 11:59:57;;;;;;;1.72;1.00;;;;;;;18.89;76.52;98297.88;2094110;83;21003;-82
2022/06/21 12:02:58;;;;;;;0.85;0.85;;;;;;;19.14;74.98;98295.31;2096393;84;21092;-82
2022/06/21 12:05:59;;;;;;;2.20;0.95;;;;;;;19.47;75.65;98298.38;2108800;83;21007;-82
2022/06/21 12:08:59;;;;;;;0.93;0.60;;;;;;;19.70;74.79;98288.88;2108522;84;21030;-82
2022/06/21 12:12:00;;;;;;;0.78;0.60;;;;;;;19.77;70.08;98288.69;2097948;83;21087;-82
2022/06/21 12:15:01;;;;;;;0.98;0.82;;;;;;;19.85;70.54;98309.50;2100024;84;20991;-82
2022/06/21 12:18:02;;;;;;;2.02;0.80;;;;;;;19.80;70.21;98304.92;2100339;84;21627;-82
2022/06/21 12:21:03;;;;;;;2.30;0.60;;;;;;;19.80;69.41;98295.63;2106659;84;21101;-82
2022/06/21 12:24:04;;;;;;;3.05;1.00;;;;;;;19.76;66.78;98288.42;2087284;83;21162;-82
2022/06/21 12:27:04;;;;;;;0.68;0.68;;;;;;;19.66;67.79;98295.75;2101711;83;21023;-82
2022/06/21 12:30:05;;;;;;;0.78;0.78;;;;;;;19.63;68.35;98284.27;2101112;83;21084;-83
2022/06/21 12:33:06;;;;;;;9.33;1.17;;;;;;;19.42;66.93;98280.55;2105084;83;21525;-83
2022/06/21 12:36:13;;;;;;;3.00;0.98;;;;;;;19.27;68.40;98294.95;2104089;84;21055;-83
2022/06/21 12:39:10;;;;;;;1.90;0.55;;;;;;;19.25;69.14;98288.56;2102173;83;21513;-83
2022/06/21 12:42:11;;;;;;;0.50;0.50;;;;;;;19.12;65.59;98276.98;2104275;83;21516;-83
2022/06/21 12:45:11;;;;;;;1.90;0.95;;;;;;;18.89;68.55;98281.95;2100688;83;20987;-83
2022/06/21 12:48:12;;;;;;;1.52;0.70;;;;;;;18.67;68.51;98271.30;2104213;83;21102;-83
2022/06/21 12:51:15;;;;;;;0.53;0.50;;;;;;;18.70;68.86;98264.70;2095193;83;21041;-82
2022/06/21 12:54:15;;;;;;;1.20;0.65;;;;;;;18.80;69.44;98275.45;2107959;84;21584;-83
2022/06/21 12:57:16;;;;;;;0.80;0.70;;;;;;;18.80;68.46;98286.07;2106777;83;21026;-83
2022/06/21 13:00:17;;;;;;;2.30;0.80;;;;;;;18.65;69.21;98281.36;2106768;84;21003;-82
2022/06/21 13:03:18;;;;;;;1.20;0.57;;;;;;;18.66;70.01;98280.83;2107655;84;21006;-83
2022/06/21 13:06:18;;;;;;;1.25;0.78;;;;;;;18.71;70.10;98257.03;2107384;84;21514;-83
2022/06/21 13:09:19;;;;;;;1.37;0.62;;;;;;;18.67;69.51;98263.87;2096742;83;21047;-83
2022/06/21 13:12:21;;;;;;;3.22;0.85;;;;;;;18.67;68.60;98257.24;2107472;84;21074;-83
2022/06/21 13:15:22;;;;;;;1.70;0.75;;;;;;;18.78;68.72;98247.06;2096468;83;21009;-83
2022/06/21 13:18:23;;;;;;;2.30;0.78;;;;;;;18.80;68.58;98244.16;2101690;83;21533;-83
2022/06/21 13:21:24;;;;;;;1.87;1.02;;;;;;;18.88;70.29;98251.70;2103313;83;21106;-83
2022/06/21 13:24:24;;;;;;;2.70;1.00;;;;;;;19.07;69.44;98258.86;2100207;84;21060;-82
2022/06/21 13:27:25;;;;;;;1.47;0.70;;;;;;;19.32;69.52;98259.99;2103235;83;21034;-83
2022/06/21 13:30:29;;;;;;;1.65;0.93;;;;;;;19.59;69.86;98264.06;2103045;84;21096;-83
2022/06/21 13:33:30;;;;;;;1.90;1.25;;;;;;;19.83;69.64;98269.08;2108057;84;21062;-82
2022/06/21 13:36:32;;;;;;;2.15;1.10;;;;;;;19.84;68.60;98279.48;2106079;84;21030;-81
2022/06/21 13:39:32;;;;;;;1.40;1.17;;;;;;;19.73;67.60;98292.35;2092875;83;21122;-82
2022/06/21 13:42:38;;;;;;;1.62;1.00;;;;;;;19.51;66.24;98288.89;2096540;83;21034;-85
2022/06/21 13:45:39;;;;;;;2.90;0.80;;;;;;;19.44;67.37;98283.75;2103302;84;21035;-83
2022/06/21 13:48:39;;;;;;;2.15;0.88;;;;;;;19.35;67.30;98284.44;2105354;83;21103;-84
2022/06/21 13:51:40;;;;;;;2.92;0.98;;;;;;;19.26;67.01;98288.84;2101662;83;21022;-85
2022/06/21 13:54:52;;;;;;;1.20;1.00;;;;;;;19.17;66.70;98294.81;2101654;83;21001;-86
2022/06/21 13:57:45;;;;;;;1.32;0.93;;;;;;;19.05;65.41;98292.27;2095309;84;21055;-83
2022/06/21 14:00:46;;;;;;;1.47;1.27;;;;;;;18.97;65.77;98296.66;2101535;84;21122;-84
2022/06/21 14:03:49;;;;;;;3.42;1.12;;;;;;;18.93;66.26;98280.44;2105617;83;20994;-85
2022/06/21 14:06:50;;;;;;;0.75;0.75;;;;;;;18.93;65.93;98281.77;2108382;84;21090;-83
2022/06/21 14:09:51;;;;;;;1.15;0.98;;;;;;;18.97;66.12;98293.48;2103981;84;21534;-83
2022/06/21 14:12:51;;;;;;;2.00;0.75;;;;;;;18.96;65.75;98290.56;2100670;83;21663;-84
2022/06/21 14:15:52;;;;;;;1.22;0.80;;;;;;;18.95;66.31;98283.65;2105559;84;20998;-84
2022/06/21 14:18:53;;;;;;;3.47;1.20;;;;;;;18.91;66.11;98291.80;2100781;83;21013;-83
2022/06/21 14:21:53;;;;;;;1.30;0.80;;;;;;;18.86;66.75;98292.27;2100464;84;21698;-84